Terminal Aerodrome Forecast
Issued by NWS

Current Version | Previous Version | Graphics & Text | Print | Product List | Glossary On
Versions: 1 2 3 4 5 6 7 8 9 10 11 12 13 14 15 16 17 18 19 20 21 22 23 24 25 26 27 28 29 30 31
000
FTUS41 KILN 252320
TAFLUK
TAF
KLUK 252320Z 2600/2624 00000KT P6SM SCT150 BKN250
     FM260600 00000KT 4SM BR SCT150 BKN250
      TEMPO 2608/2612 2SM BR
     FM261400 25005KT P6SM SCT040 SCT250
     FM262100 32005KT P6SM VCSH BKN040=

USA.gov is the U.S. government's official web portal to all federal, state and local government web resources and services.